sensor_id;sensor_type;location;lat;lon;timestamp;pressure;altitude;pressure_sealevel;temperature;humidity
42519;BME280;28147;47.520;18.920;2022-11-20T00:02:22;98051.00;;;5.05;60.02
42519;BME280;28147;47.520;18.920;2022-11-20T00:04:47;98047.34;;;5.00;59.73
42519;BME280;28147;47.520;18.920;2022-11-20T00:07:12;98055.28;;;4.80;60.57
42519;BME280;28147;47.520;18.920;2022-11-20T00:09:38;98055.00;;;5.21;59.67
42519;BME280;28147;47.520;18.920;2022-11-20T00:12:03;98042.38;;;5.30;58.86
42519;BME280;28147;47.520;18.920;2022-11-20T00:14:29;98048.59;;;4.84;59.38
42519;BME280;28147;47.520;18.920;2022-11-20T00:16:54;98053.22;;;5.08;59.10
42519;BME280;28147;47.520;18.920;2022-11-20T00:19:19;98046.06;;;5.29;58.96
42519;BME280;28147;47.520;18.920;2022-11-20T00:21:45;98042.06;;;5.00;59.58
42519;BME280;28147;47.520;18.920;2022-11-20T00:24:10;98050.78;;;5.07;59.27
42519;BME280;28147;47.520;18.920;2022-11-20T00:26:36;98047.34;;;5.06;59.11
42519;BME280;28147;47.520;18.920;2022-11-20T00:29:02;98035.81;;;4.94;59.20
42519;BME280;28147;47.520;18.920;2022-11-20T00:31:28;98029.97;;;4.59;59.67
42519;BME280;28147;47.520;18.920;2022-11-20T00:33:54;98031.59;;;4.60;60.69
42519;BME280;28147;47.520;18.920;2022-11-20T00:38:57;98046.56;;;4.86;59.88
42519;BME280;28147;47.520;18.920;2022-11-20T00:41:25;98068.66;;;4.98;59.11
42519;BME280;28147;47.520;18.920;2022-11-20T00:43:54;98075.53;;;5.06;58.21
42519;BME280;28147;47.520;18.920;2022-11-20T00:46:23;98071.06;;;5.00;58.58
42519;BME280;28147;47.520;18.920;2022-11-20T00:48:49;98060.34;;;5.01;58.37
42519;BME280;28147;47.520;18.920;2022-11-20T00:51:16;98064.38;;;5.10;58.20
42519;BME280;28147;47.520;18.920;2022-11-20T00:53:43;98056.44;;;5.24;58.45
42519;BME280;28147;47.520;18.920;2022-11-20T00:56:13;98055.47;;;5.05;58.21
42519;BME280;28147;47.520;18.920;2022-11-20T00:58:41;98057.47;;;5.09;58.12
42519;BME280;28147;47.520;18.920;2022-11-20T01:01:09;98055.88;;;5.02;57.94
42519;BME280;28147;47.520;18.920;2022-11-20T01:03:37;98055.06;;;5.08;58.30
42519;BME280;28147;47.520;18.920;2022-11-20T01:06:06;98057.06;;;5.12;57.74
42519;BME280;28147;47.520;18.920;2022-11-20T01:08:33;98055.50;;;4.65;59.59
42519;BME280;28147;47.520;18.920;2022-11-20T01:11:21;98055.06;;;5.08;59.05
42519;BME280;28147;47.520;18.920;2022-11-20T01:13:47;98063.19;;;4.93;59.08
42519;BME280;28147;47.520;18.920;2022-11-20T01:16:16;98054.03;;;5.02;59.40
42519;BME280;28147;47.520;18.920;2022-11-20T01:18:44;98059.06;;;5.24;58.85
42519;BME280;28147;47.520;18.920;2022-11-20T01:21:15;98063.94;;;5.27;58.34
42519;BME280;28147;47.520;18.920;2022-11-20T01:23:42;98066.25;;;4.97;59.67
42519;BME280;28147;47.520;18.920;2022-11-20T01:26:10;98059.16;;;4.71;60.87
42519;BME280;28147;47.520;18.920;2022-11-20T01:28:36;98061.16;;;4.95;60.67
42519;BME280;28147;47.520;18.920;2022-11-20T01:31:13;98059.75;;;4.86;61.09
42519;BME280;28147;47.520;18.920;2022-11-20T01:33:40;98069.47;;;5.05;60.54
42519;BME280;28147;47.520;18.920;2022-11-20T01:36:07;98068.44;;;5.13;60.68
42519;BME280;28147;47.520;18.920;2022-11-20T01:38:33;98056.28;;;4.99;60.78
42519;BME280;28147;47.520;18.920;2022-11-20T01:40:58;98044.16;;;4.78;61.83
42519;BME280;28147;47.520;18.920;2022-11-20T01:43:25;98052.81;;;5.05;60.85
42519;BME280;28147;47.520;18.920;2022-11-20T01:48:40;98041.47;;;5.04;61.73
42519;BME280;28147;47.520;18.920;2022-11-20T01:53:44;98012.63;;;5.09;61.09
42519;BME280;28147;47.520;18.920;2022-11-20T01:56:12;98013.25;;;5.05;60.82
42519;BME280;28147;47.520;18.920;2022-11-20T01:58:43;98010.59;;;5.11;60.88
42519;BME280;28147;47.520;18.920;2022-11-20T02:01:10;98019.72;;;5.16;61.04
42519;BME280;28147;47.520;18.920;2022-11-20T02:03:36;98028.22;;;5.11;61.40
42519;BME280;28147;47.520;18.920;2022-11-20T02:06:10;98022.78;;;5.12;61.47
42519;BME280;28147;47.520;18.920;2022-11-20T02:08:38;98038.28;;;5.47;60.08
42519;BME280;28147;47.520;18.920;2022-11-20T02:11:04;98033.91;;;5.21;60.84
42519;BME280;28147;47.520;18.920;2022-11-20T02:13:29;98043.66;;;5.21;60.77
42519;BME280;28147;47.520;18.920;2022-11-20T02:16:31;98039.59;;;5.18;61.29
42519;BME280;28147;47.520;18.920;2022-11-20T02:19:00;98028.59;;;5.34;60.31
42519;BME280;28147;47.520;18.920;2022-11-20T02:24:14;98042.84;;;5.20;60.67
42519;BME280;28147;47.520;18.920;2022-11-20T02:26:51;98037.41;;;5.08;60.56
42519;BME280;28147;47.520;18.920;2022-11-20T02:29:21;98034.06;;;5.33;59.93
42519;BME280;28147;47.520;18.920;2022-11-20T02:31:48;98025.88;;;4.90;61.23
42519;BME280;28147;47.520;18.920;2022-11-20T02:34:14;98025.25;;;4.81;61.63
42519;BME280;28147;47.520;18.920;2022-11-20T02:36:41;98016.72;;;4.99;60.84
42519;BME280;28147;47.520;18.920;2022-11-20T02:39:07;98013.50;;;4.83;61.56
42519;BME280;28147;47.520;18.920;2022-11-20T02:41:35;98018.59;;;4.65;62.20
42519;BME280;28147;47.520;18.920;2022-11-20T02:44:01;98008.84;;;4.66;62.09
42519;BME280;28147;47.520;18.920;2022-11-20T02:46:26;98017.16;;;4.89;61.89
42519;BME280;28147;47.520;18.920;2022-11-20T02:48:51;98021.88;;;4.47;62.85
42519;BME280;28147;47.520;18.920;2022-11-20T02:51:17;98018.59;;;4.85;62.38
42519;BME280;28147;47.520;18.920;2022-11-20T02:53:42;98019.41;;;4.79;62.21
42519;BME280;28147;47.520;18.920;2022-11-20T02:56:07;98030.75;;;4.93;61.68
42519;BME280;28147;47.520;18.920;2022-11-20T02:58:33;98032.44;;;5.32;60.78
42519;BME280;28147;47.520;18.920;2022-11-20T03:00:58;98024.53;;;5.25;61.39
42519;BME280;28147;47.520;18.920;2022-11-20T03:03:23;98008.78;;;5.05;60.93
42519;BME280;28147;47.520;18.920;2022-11-20T03:05:49;98008.53;;;5.20;60.55
42519;BME280;28147;47.520;18.920;2022-11-20T03:08:14;98003.84;;;5.22;60.98
42519;BME280;28147;47.520;18.920;2022-11-20T03:10:40;98006.56;;;5.02;61.42
42519;BME280;28147;47.520;18.920;2022-11-20T03:13:05;98016.63;;;5.32;60.89
42519;BME280;28147;47.520;18.920;2022-11-20T03:15:30;98013.88;;;5.00;60.75
42519;BME280;28147;47.520;18.920;2022-11-20T03:17:56;98007.50;;;5.28;60.47
42519;BME280;28147;47.520;18.920;2022-11-20T03:20:22;98010.66;;;5.50;60.03
42519;BME280;28147;47.520;18.920;2022-11-20T03:22:47;98031.94;;;5.61;59.52
42519;BME280;28147;47.520;18.920;2022-11-20T03:25:12;98036.16;;;5.69;58.84
42519;BME280;28147;47.520;18.920;2022-11-20T03:27:38;98043.66;;;5.21;60.24
42519;BME280;28147;47.520;18.920;2022-11-20T03:30:04;98044.75;;;5.51;59.94
42519;BME280;28147;47.520;18.920;2022-11-20T03:32:30;98039.50;;;5.45;60.04
42519;BME280;28147;47.520;18.920;2022-11-20T03:34:56;98026.84;;;5.60;60.40
42519;BME280;28147;47.520;18.920;2022-11-20T03:37:21;98027.50;;;5.94;59.65
42519;BME280;28147;47.520;18.920;2022-11-20T03:39:47;98023.38;;;5.66;59.89
42519;BME280;28147;47.520;18.920;2022-11-20T03:42:12;98032.56;;;5.57;60.37
42519;BME280;28147;47.520;18.920;2022-11-20T03:44:53;98023.38;;;5.66;60.89
42519;BME280;28147;47.520;18.920;2022-11-20T03:47:18;98024.16;;;5.67;61.01
42519;BME280;28147;47.520;18.920;2022-11-20T03:49:44;98024.59;;;5.64;61.20
42519;BME280;28147;47.520;18.920;2022-11-20T03:52:09;98028.34;;;5.49;61.13
42519;BME280;28147;47.520;18.920;2022-11-20T03:54:34;98034.81;;;5.53;60.71
42519;BME280;28147;47.520;18.920;2022-11-20T03:57:00;98033.81;;;5.48;61.07
42519;BME280;28147;47.520;18.920;2022-11-20T03:59:25;98030.34;;;5.47;61.32
42519;BME280;28147;47.520;18.920;2022-11-20T04:01:50;98042.34;;;5.50;61.51
42519;BME280;28147;47.520;18.920;2022-11-20T04:04:16;98019.97;;;5.52;61.47
42519;BME280;28147;47.520;18.920;2022-11-20T04:06:41;98017.84;;;5.68;60.62
42519;BME280;28147;47.520;18.920;2022-11-20T04:09:06;98012.63;;;5.61;60.81
42519;BME280;28147;47.520;18.920;2022-11-20T04:11:34;98010.53;;;5.76;60.60
42519;BME280;28147;47.520;18.920;2022-11-20T04:16:35;98000.47;;;5.92;59.99
42519;BME280;28147;47.520;18.920;2022-11-20T04:19:03;97984.50;;;5.80;60.09
42519;BME280;28147;47.520;18.920;2022-11-20T04:21:29;97982.69;;;5.35;60.29
42519;BME280;28147;47.520;18.920;2022-11-20T04:23:55;97975.28;;;5.57;60.16
42519;BME280;28147;47.520;18.920;2022-11-20T04:26:22;97972.88;;;5.88;59.23
42519;BME280;28147;47.520;18.920;2022-11-20T04:28:47;97969.91;;;5.71;59.40
42519;BME280;28147;47.520;18.920;2022-11-20T04:31:15;97985.47;;;5.54;60.03
42519;BME280;28147;47.520;18.920;2022-11-20T04:33:41;97981.56;;;5.56;59.29
42519;BME280;28147;47.520;18.920;2022-11-20T04:36:11;97977.28;;;5.62;58.71
42519;BME280;28147;47.520;18.920;2022-11-20T04:38:37;97975.94;;;5.84;58.95
42519;BME280;28147;47.520;18.920;2022-11-20T04:41:05;97980.22;;;5.79;59.16
42519;BME280;28147;47.520;18.920;2022-11-20T04:43:32;97975.44;;;5.63;59.35
42519;BME280;28147;47.520;18.920;2022-11-20T04:45:58;97967.66;;;5.36;59.28
42519;BME280;28147;47.520;18.920;2022-11-20T04:48:25;97963.09;;;5.56;58.84
42519;BME280;28147;47.520;18.920;2022-11-20T04:50:51;97963.47;;;5.60;59.15
42519;BME280;28147;47.520;18.920;2022-11-20T04:53:18;97965.44;;;5.71;59.14
42519;BME280;28147;47.520;18.920;2022-11-20T04:55:43;97956.44;;;5.79;58.64
42519;BME280;28147;47.520;18.920;2022-11-20T04:58:09;97958.63;;;5.89;58.34
42519;BME280;28147;47.520;18.920;2022-11-20T05:00:35;97953.06;;;6.03;58.47
42519;BME280;28147;47.520;18.920;2022-11-20T05:03:00;97963.63;;;6.03;58.97
42519;BME280;28147;47.520;18.920;2022-11-20T05:05:26;97966.56;;;5.89;59.23
42519;BME280;28147;47.520;18.920;2022-11-20T05:07:51;97970.25;;;5.81;58.74
42519;BME280;28147;47.520;18.920;2022-11-20T05:10:16;97971.81;;;5.95;58.53
42519;BME280;28147;47.520;18.920;2022-11-20T05:12:42;97965.25;;;6.04;58.26
42519;BME280;28147;47.520;18.920;2022-11-20T05:15:08;97962.44;;;5.99;57.71
42519;BME280;28147;47.520;18.920;2022-11-20T05:17:33;97961.63;;;5.99;57.96
42519;BME280;28147;47.520;18.920;2022-11-20T05:19:59;97955.72;;;6.03;58.24
42519;BME280;28147;47.520;18.920;2022-11-20T05:22:24;97960.03;;;5.91;58.25
42519;BME280;28147;47.520;18.920;2022-11-20T05:24:49;97963.00;;;5.70;58.93
42519;BME280;28147;47.520;18.920;2022-11-20T05:27:15;97963.38;;;5.80;59.44
42519;BME280;28147;47.520;18.920;2022-11-20T05:29:40;97944.59;;;5.95;58.45
42519;BME280;28147;47.520;18.920;2022-11-20T05:32:06;97939.91;;;5.90;59.96
42519;BME280;28147;47.520;18.920;2022-11-20T05:34:34;97950.09;;;5.86;59.64
42519;BME280;28147;47.520;18.920;2022-11-20T05:36:59;97953.00;;;5.78;59.24
42519;BME280;28147;47.520;18.920;2022-11-20T05:39:25;97944.53;;;5.38;60.29
42519;BME280;28147;47.520;18.920;2022-11-20T05:41:50;97953.13;;;5.20;61.58
42519;BME280;28147;47.520;18.920;2022-11-20T05:44:35;97949.84;;;5.25;61.94
42519;BME280;28147;47.520;18.920;2022-11-20T05:47:01;97954.69;;;5.34;62.11
42519;BME280;28147;47.520;18.920;2022-11-20T05:49:26;97966.38;;;5.45;62.01
42519;BME280;28147;47.520;18.920;2022-11-20T05:51:51;97973.50;;;5.45;62.62
42519;BME280;28147;47.520;18.920;2022-11-20T05:54:17;97972.34;;;5.72;61.38
42519;BME280;28147;47.520;18.920;2022-11-20T05:56:42;97977.97;;;5.44;62.06
42519;BME280;28147;47.520;18.920;2022-11-20T05:59:08;97981.41;;;5.51;61.73
42519;BME280;28147;47.520;18.920;2022-11-20T06:01:33;97984.69;;;5.78;61.38
42519;BME280;28147;47.520;18.920;2022-11-20T06:04:01;97977.53;;;5.92;60.68
42519;BME280;28147;47.520;18.920;2022-11-20T06:06:26;97974.75;;;5.80;61.18
42519;BME280;28147;47.520;18.920;2022-11-20T06:08:52;97984.38;;;6.00;60.62
42519;BME280;28147;47.520;18.920;2022-11-20T06:11:17;97979.19;;;6.18;60.34
42519;BME280;28147;47.520;18.920;2022-11-20T06:13:43;97959.31;;;6.09;60.85
42519;BME280;28147;47.520;18.920;2022-11-20T06:16:11;97972.09;;;6.37;59.98
42519;BME280;28147;47.520;18.920;2022-11-20T06:18:37;97969.50;;;6.30;60.55
42519;BME280;28147;47.520;18.920;2022-11-20T06:21:06;97977.16;;;6.39;61.01
42519;BME280;28147;47.520;18.920;2022-11-20T06:23:32;97984.94;;;6.08;61.76
42519;BME280;28147;47.520;18.920;2022-11-20T06:26:07;97986.81;;;6.01;62.20
42519;BME280;28147;47.520;18.920;2022-11-20T06:28:33;97981.22;;;5.84;62.72
42519;BME280;28147;47.520;18.920;2022-11-20T06:30:59;97978.16;;;6.19;61.78
42519;BME280;28147;47.520;18.920;2022-11-20T06:33:25;97978.19;;;6.13;62.44
42519;BME280;28147;47.520;18.920;2022-11-20T06:35:51;97993.75;;;5.96;62.92
42519;BME280;28147;47.520;18.920;2022-11-20T06:38:16;98003.94;;;5.92;63.29
42519;BME280;28147;47.520;18.920;2022-11-20T06:40:42;98009.50;;;6.09;63.41
42519;BME280;28147;47.520;18.920;2022-11-20T06:43:11;98012.03;;;6.29;62.15
42519;BME280;28147;47.520;18.920;2022-11-20T06:45:36;98010.09;;;6.18;62.72
42519;BME280;28147;47.520;18.920;2022-11-20T06:48:02;98013.06;;;5.58;63.54
42519;BME280;28147;47.520;18.920;2022-11-20T06:50:28;98016.63;;;5.25;65.40
42519;BME280;28147;47.520;18.920;2022-11-20T06:52:53;98017.66;;;5.18;65.10
42519;BME280;28147;47.520;18.920;2022-11-20T06:55:19;98016.50;;;5.58;64.21
42519;BME280;28147;47.520;18.920;2022-11-20T06:57:45;98005.53;;;6.00;63.67
42519;BME280;28147;47.520;18.920;2022-11-20T07:00:13;97997.97;;;6.28;63.31
42519;BME280;28147;47.520;18.920;2022-11-20T07:02:38;97998.25;;;6.20;63.22
42519;BME280;28147;47.520;18.920;2022-11-20T07:05:04;98004.22;;;6.09;63.76
42519;BME280;28147;47.520;18.920;2022-11-20T07:07:29;98012.34;;;6.14;64.09
42519;BME280;28147;47.520;18.920;2022-11-20T07:09:55;98004.34;;;6.46;62.94
42519;BME280;28147;47.520;18.920;2022-11-20T07:12:20;98006.34;;;6.50;63.25
42519;BME280;28147;47.520;18.920;2022-11-20T07:14:46;98025.47;;;6.52;63.06
42519;BME280;28147;47.520;18.920;2022-11-20T07:17:12;98026.75;;;6.18;64.30
42519;BME280;28147;47.520;18.920;2022-11-20T07:19:37;98028.81;;;5.71;65.96
42519;BME280;28147;47.520;18.920;2022-11-20T07:22:02;98038.16;;;5.74;65.84
42519;BME280;28147;47.520;18.920;2022-11-20T07:24:28;98031.97;;;5.93;65.21
42519;BME280;28147;47.520;18.920;2022-11-20T07:26:53;98037.94;;;6.14;65.52
42519;BME280;28147;47.520;18.920;2022-11-20T07:29:19;98033.69;;;6.63;64.57
42519;BME280;28147;47.520;18.920;2022-11-20T07:31:44;98025.88;;;6.49;64.69
42519;BME280;28147;47.520;18.920;2022-11-20T07:34:09;98030.56;;;6.22;65.40
42519;BME280;28147;47.520;18.920;2022-11-20T07:36:35;98028.06;;;6.02;66.17
42519;BME280;28147;47.520;18.920;2022-11-20T07:39:00;98028.31;;;5.94;64.97
42519;BME280;28147;47.520;18.920;2022-11-20T07:41:26;98026.81;;;5.67;65.65
42519;BME280;28147;47.520;18.920;2022-11-20T07:43:52;98025.06;;;5.47;67.57
42519;BME280;28147;47.520;18.920;2022-11-20T07:46:18;98024.97;;;5.67;67.85
42519;BME280;28147;47.520;18.920;2022-11-20T07:48:43;98023.94;;;5.68;67.74
42519;BME280;28147;47.520;18.920;2022-11-20T07:51:08;98021.00;;;5.96;67.01
42519;BME280;28147;47.520;18.920;2022-11-20T07:53:34;98017.81;;;6.44;65.29
42519;BME280;28147;47.520;18.920;2022-11-20T07:56:00;98020.69;;;6.36;66.03
42519;BME280;28147;47.520;18.920;2022-11-20T07:58:28;98017.09;;;6.55;65.17
42519;BME280;28147;47.520;18.920;2022-11-20T08:00:53;98014.47;;;6.55;65.73
42519;BME280;28147;47.520;18.920;2022-11-20T08:03:19;98015.63;;;6.60;64.00
42519;BME280;28147;47.520;18.920;2022-11-20T08:05:44;98012.75;;;6.61;63.30
42519;BME280;28147;47.520;18.920;2022-11-20T08:08:10;98013.03;;;6.96;61.97
42519;BME280;28147;47.520;18.920;2022-11-20T08:10:35;98000.84;;;7.32;61.96
42519;BME280;28147;47.520;18.920;2022-11-20T08:13:00;98005.28;;;7.50;63.43
42519;BME280;28147;47.520;18.920;2022-11-20T08:15:48;98008.44;;;7.59;64.70
42519;BME280;28147;47.520;18.920;2022-11-20T08:18:15;98009.47;;;7.57;64.64
42519;BME280;28147;47.520;18.920;2022-11-20T08:20:40;98018.41;;;7.75;64.49
42519;BME280;28147;47.520;18.920;2022-11-20T08:23:07;98020.41;;;7.91;64.20
42519;BME280;28147;47.520;18.920;2022-11-20T08:25:34;98012.47;;;7.91;63.77
42519;BME280;28147;47.520;18.920;2022-11-20T08:28:02;98014.81;;;7.99;63.55
42519;BME280;28147;47.520;18.920;2022-11-20T08:30:28;98013.63;;;7.95;64.09
42519;BME280;28147;47.520;18.920;2022-11-20T08:32:54;98009.91;;;8.15;63.47
42519;BME280;28147;47.520;18.920;2022-11-20T08:35:21;98009.53;;;7.99;64.22
42519;BME280;28147;47.520;18.920;2022-11-20T08:37:47;98026.19;;;8.18;64.12
42519;BME280;28147;47.520;18.920;2022-11-20T08:40:13;98023.91;;;7.92;64.94
42519;BME280;28147;47.520;18.920;2022-11-20T08:42:49;98023.59;;;7.70;65.53
42519;BME280;28147;47.520;18.920;2022-11-20T08:45:15;98027.81;;;7.89;65.60
42519;BME280;28147;47.520;18.920;2022-11-20T08:47:41;98026.63;;;7.85;65.59
42519;BME280;28147;47.520;18.920;2022-11-20T08:50:08;98028.69;;;7.35;67.38
42519;BME280;28147;47.520;18.920;2022-11-20T08:52:34;98028.19;;;7.44;67.49
42519;BME280;28147;47.520;18.920;2022-11-20T08:54:59;98035.19;;;7.39;67.80
42519;BME280;28147;47.520;18.920;2022-11-20T08:57:24;98041.56;;;7.31;66.32
42519;BME280;28147;47.520;18.920;2022-11-20T08:59:50;98044.63;;;6.91;68.00
42519;BME280;28147;47.520;18.920;2022-11-20T09:02:15;98048.75;;;6.87;68.31
42519;BME280;28147;47.520;18.920;2022-11-20T09:04:40;98049.31;;;6.89;67.00
42519;BME280;28147;47.520;18.920;2022-11-20T09:07:06;98058.19;;;7.20;66.58
42519;BME280;28147;47.520;18.920;2022-11-20T09:09:31;98063.16;;;7.65;66.06
42519;BME280;28147;47.520;18.920;2022-11-20T09:11:58;98058.53;;;7.78;65.93
42519;BME280;28147;47.520;18.920;2022-11-20T09:14:23;98055.06;;;7.78;65.55
42519;BME280;28147;47.520;18.920;2022-11-20T09:16:54;98065.59;;;8.15;65.06
42519;BME280;28147;47.520;18.920;2022-11-20T09:19:20;98052.09;;;8.16;64.86
42519;BME280;28147;47.520;18.920;2022-11-20T09:21:45;98059.56;;;8.08;64.78
42519;BME280;28147;47.520;18.920;2022-11-20T09:24:11;98064.28;;;8.05;64.48
42519;BME280;28147;47.520;18.920;2022-11-20T09:26:36;98059.72;;;7.94;64.44
42519;BME280;28147;47.520;18.920;2022-11-20T09:29:01;98063.81;;;7.78;64.87
42519;BME280;28147;47.520;18.920;2022-11-20T09:31:27;98059.66;;;8.01;63.90
42519;BME280;28147;47.520;18.920;2022-11-20T09:33:52;98051.63;;;7.22;65.44
42519;BME280;28147;47.520;18.920;2022-11-20T09:36:17;98049.50;;;6.94;67.17
42519;BME280;28147;47.520;18.920;2022-11-20T09:38:46;98048.59;;;6.82;67.82
42519;BME280;28147;47.520;18.920;2022-11-20T09:46:51;98047.44;;;7.51;66.24
42519;BME280;28147;47.520;18.920;2022-11-20T09:54:56;98054.81;;;8.10;64.04
42519;BME280;28147;47.520;18.920;2022-11-20T09:57:32;98057.31;;;7.93;63.78
42519;BME280;28147;47.520;18.920;2022-11-20T10:00:00;98052.91;;;7.87;64.36
42519;BME280;28147;47.520;18.920;2022-11-20T10:02:35;98053.47;;;8.37;63.11
42519;BME280;28147;47.520;18.920;2022-11-20T10:10:35;98036.06;;;8.41;61.81
42519;BME280;28147;47.520;18.920;2022-11-20T10:23:50;98008.31;;;9.19;60.70
42519;BME280;28147;47.520;18.920;2022-11-20T10:29:21;97999.66;;;9.64;59.22
42519;BME280;28147;47.520;18.920;2022-11-20T10:31:56;97990.41;;;10.12;58.43
42519;BME280;28147;47.520;18.920;2022-11-20T10:34:46;97982.13;;;10.59;57.08
42519;BME280;28147;47.520;18.920;2022-11-20T10:37:22;97983.97;;;10.76;55.79
42519;BME280;28147;47.520;18.920;2022-11-20T10:39:59;97984.16;;;11.08;55.26
42519;BME280;28147;47.520;18.920;2022-11-20T10:42:42;97985.47;;;10.50;54.81
42519;BME280;28147;47.520;18.920;2022-11-20T10:45:19;97996.66;;;11.07;55.94
42519;BME280;28147;47.520;18.920;2022-11-20T10:47:47;97988.50;;;11.63;54.50
42519;BME280;28147;47.520;18.920;2022-11-20T10:50:16;97997.44;;;11.96;54.28
42519;BME280;28147;47.520;18.920;2022-11-20T10:55:48;97974.31;;;11.30;54.15
42519;BME280;28147;47.520;18.920;2022-11-20T11:01:06;97985.31;;;12.15;53.81
42519;BME280;28147;47.520;18.920;2022-11-20T11:03:38;97999.22;;;11.19;53.38
42519;BME280;28147;47.520;18.920;2022-11-20T11:06:10;98000.34;;;10.84;55.60
42519;BME280;28147;47.520;18.920;2022-11-20T11:08:39;98000.44;;;10.56;56.14
42519;BME280;28147;47.520;18.920;2022-11-20T11:11:28;98000.88;;;10.86;56.53
42519;BME280;28147;47.520;18.920;2022-11-20T11:14:11;98001.72;;;11.09;56.34
42519;BME280;28147;47.520;18.920;2022-11-20T11:16:49;98009.72;;;11.09;55.01
42519;BME280;28147;47.520;18.920;2022-11-20T11:19:16;98002.56;;;10.54;56.40
42519;BME280;28147;47.520;18.920;2022-11-20T11:21:51;98007.69;;;10.60;56.36
42519;BME280;28147;47.520;18.920;2022-11-20T11:24:24;98013.34;;;10.64;56.20
42519;BME280;28147;47.520;18.920;2022-11-20T11:29:24;98020.09;;;10.21;57.35
42519;BME280;28147;47.520;18.920;2022-11-20T11:32:11;98014.75;;;10.04;58.26
42519;BME280;28147;47.520;18.920;2022-11-20T11:34:37;98017.16;;;10.22;57.88
42519;BME280;28147;47.520;18.920;2022-11-20T11:37:04;98013.22;;;10.08;57.91
42519;BME280;28147;47.520;18.920;2022-11-20T11:39:31;98009.69;;;10.19;57.66
42519;BME280;28147;47.520;18.920;2022-11-20T11:41:58;98014.44;;;10.17;57.96
42519;BME280;28147;47.520;18.920;2022-11-20T11:44:31;98008.31;;;10.17;57.29
42519;BME280;28147;47.520;18.920;2022-11-20T11:47:30;98004.97;;;9.93;57.97
42519;BME280;28147;47.520;18.920;2022-11-20T11:56:23;97981.06;;;10.10;57.68
42519;BME280;28147;47.520;18.920;2022-11-20T11:58:50;97986.97;;;9.83;57.64
42519;BME280;28147;47.520;18.920;2022-11-20T12:04:10;97985.28;;;9.48;58.39
42519;BME280;28147;47.520;18.920;2022-11-20T12:06:43;97986.69;;;9.39;58.44
42519;BME280;28147;47.520;18.920;2022-11-20T12:09:11;97985.06;;;9.38;59.16
42519;BME280;28147;47.520;18.920;2022-11-20T12:14:35;97989.66;;;9.55;58.11
42519;BME280;28147;47.520;18.920;2022-11-20T12:17:02;97995.22;;;9.41;58.68
42519;BME280;28147;47.520;18.920;2022-11-20T12:19:33;97995.44;;;9.52;58.60
42519;BME280;28147;47.520;18.920;2022-11-20T12:30:20;97970.06;;;9.44;58.26
42519;BME280;28147;47.520;18.920;2022-11-20T12:41:08;97966.34;;;8.93;59.36
42519;BME280;28147;47.520;18.920;2022-11-20T12:43:54;97960.81;;;9.06;58.68
42519;BME280;28147;47.520;18.920;2022-11-20T12:55:28;97967.13;;;9.17;58.86
42519;BME280;28147;47.520;18.920;2022-11-20T13:00:51;97973.53;;;8.69;59.22
42519;BME280;28147;47.520;18.920;2022-11-20T13:03:31;97974.66;;;8.96;59.58
42519;BME280;28147;47.520;18.920;2022-11-20T13:06:05;97972.53;;;9.22;59.28
42519;BME280;28147;47.520;18.920;2022-11-20T13:08:37;97972.31;;;9.12;59.23
42519;BME280;28147;47.520;18.920;2022-11-20T13:11:21;97975.66;;;9.19;58.83
42519;BME280;28147;47.520;18.920;2022-11-20T13:16:45;97990.84;;;8.83;58.65
42519;BME280;28147;47.520;18.920;2022-11-20T13:19:15;97987.56;;;9.05;58.28
42519;BME280;28147;47.520;18.920;2022-11-20T13:21:44;97979.56;;;8.64;59.97
42519;BME280;28147;47.520;18.920;2022-11-20T13:24:23;97975.91;;;9.17;58.68
42519;BME280;28147;47.520;18.920;2022-11-20T13:29:31;97976.13;;;9.16;58.95
42519;BME280;28147;47.520;18.920;2022-11-20T13:34:28;97973.81;;;9.19;59.02
42519;BME280;28147;47.520;18.920;2022-11-20T13:36:56;97967.63;;;9.42;59.27
42519;BME280;28147;47.520;18.920;2022-11-20T13:39:29;97963.00;;;9.38;59.13
42519;BME280;28147;47.520;18.920;2022-11-20T13:42:00;97963.16;;;9.31;59.08
42519;BME280;28147;47.520;18.920;2022-11-20T13:44:42;97948.63;;;9.22;59.30
42519;BME280;28147;47.520;18.920;2022-11-20T13:47:35;97949.03;;;9.42;58.46
42519;BME280;28147;47.520;18.920;2022-11-20T13:50:03;97942.00;;;9.36;58.79
42519;BME280;28147;47.520;18.920;2022-11-20T13:58:27;97932.19;;;8.96;59.77
42519;BME280;28147;47.520;18.920;2022-11-20T14:03:45;97930.22;;;9.04;59.76
42519;BME280;28147;47.520;18.920;2022-11-20T14:06:20;97936.09;;;9.06;59.88
42519;BME280;28147;47.520;18.920;2022-11-20T14:08:51;97929.81;;;8.83;60.39
42519;BME280;28147;47.520;18.920;2022-11-20T14:11:25;97933.47;;;8.82;60.10
42519;BME280;28147;47.520;18.920;2022-11-20T14:14:02;97942.59;;;8.74;59.85
42519;BME280;28147;47.520;18.920;2022-11-20T14:16:33;97936.41;;;8.57;60.79
42519;BME280;28147;47.520;18.920;2022-11-20T14:21:47;97945.53;;;8.49;61.16
42519;BME280;28147;47.520;18.920;2022-11-20T14:24:13;97951.53;;;8.57;60.53
42519;BME280;28147;47.520;18.920;2022-11-20T14:26:43;97950.81;;;8.49;61.67
42519;BME280;28147;47.520;18.920;2022-11-20T14:29:22;97953.81;;;8.76;60.35
42519;BME280;28147;47.520;18.920;2022-11-20T14:31:53;97961.75;;;8.88;60.28
42519;BME280;28147;47.520;18.920;2022-11-20T14:34:25;97954.16;;;8.80;61.08
42519;BME280;28147;47.520;18.920;2022-11-20T14:36:58;97963.50;;;8.71;60.59
42519;BME280;28147;47.520;18.920;2022-11-20T14:40:04;97963.38;;;8.77;60.84
42519;BME280;28147;47.520;18.920;2022-11-20T14:42:30;97966.38;;;8.81;60.75
42519;BME280;28147;47.520;18.920;2022-11-20T14:44:58;97952.19;;;8.87;60.43
42519;BME280;28147;47.520;18.920;2022-11-20T14:47:27;97956.00;;;8.68;60.07
42519;BME280;28147;47.520;18.920;2022-11-20T14:49:55;97958.53;;;8.74;60.68
42519;BME280;28147;47.520;18.920;2022-11-20T14:52:26;97965.66;;;8.86;59.94
42519;BME280;28147;47.520;18.920;2022-11-20T14:54:54;97960.03;;;8.70;59.74
42519;BME280;28147;47.520;18.920;2022-11-20T14:59:49;97974.69;;;8.61;65.09
42519;BME280;28147;47.520;18.920;2022-11-20T15:02:14;97969.94;;;8.98;61.73